Time;durP1;ratioP1;P1;durP2;ratioP2;P2;SDS_P1;SDS_P2;PMS_P1;PMS_P2;Temp;Humidity;BMP_temperature;BMP_pressure;BME280_temperature;BME280_humidity;BME280_pressure;Samples;Min_cycle;Max_cycle;Signal;HPM_P1;HPM_P2
2023/10/10 00:01:39;;;;;;;5.18;3.40;;;;;;;;;;5065398;28;20219;-68
2023/10/10 00:04:07;;;;;;;6.40;3.60;;;;;;;;;;5062431;28;20218;-69
2023/10/10 00:06:38;;;;;;;4.72;3.05;;;;;;;;;;5065188;28;20195;-68
2023/10/10 00:09:06;;;;;;;5.68;3.13;;;;;;;;;;5060543;28;20206;-68
2023/10/10 00:11:35;;;;;;;7.25;4.47;;;;;;;;;;5062425;28;20322;-68
2023/10/10 00:14:05;;;;;;;5.78;3.33;;;;;;;;;;5062929;28;20252;-69
2023/10/10 00:16:37;;;;;;;4.53;3.20;;;;;;;;;;5065106;28;20327;-69
2023/10/10 00:19:17;;;;;;;6.60;3.75;;;;;;;;;;5064696;28;20248;-68
2023/10/10 00:21:46;;;;;;;8.05;3.45;;;;;;;;;;5065640;28;20199;-69
2023/10/10 00:24:14;;;;;;;3.63;3.30;;;;;;;;;;5064815;28;20242;-69
2023/10/10 00:26:43;;;;;;;6.60;3.28;;;;;;;;;;5064585;28;20207;-68
2023/10/10 00:29:11;;;;;;;4.63;3.08;;;;;;;;;;5065139;28;20202;-69
2023/10/10 00:31:43;;;;;;;5.75;3.25;;;;;;;;;;5063736;28;20213;-68
2023/10/10 00:34:10;;;;;;;3.05;2.83;;;;;;;;;;5064718;28;20214;-69
2023/10/10 00:36:37;;;;;;;3.13;2.92;;;;;;;;;;5062987;28;20886;-69
2023/10/10 00:39:22;;;;;;;3.88;2.97;;;;;;;;;;5064885;28;20657;-68
2023/10/10 00:41:54;;;;;;;7.90;3.28;;;;;;;;;;5063729;28;20707;-69
2023/10/10 00:44:25;;;;;;;12.65;2.80;;;;;;;;;;5064493;28;20708;-69
2023/10/10 00:46:54;;;;;;;7.63;3.28;;;;;;;;;;5063615;28;20918;-68
2023/10/10 00:49:23;;;;;;;4.00;3.07;;;;;;;;;;5064646;28;20677;-68
2023/10/10 00:51:51;;;;;;;5.45;2.80;;;;;;;;;;5064629;28;20669;-69
2023/10/10 00:54:27;;;;;;;6.95;3.33;;;;;;;;;;5064519;28;20215;-69
2023/10/10 00:56:56;;;;;;;3.60;2.90;;;;;;;;;;5064191;28;20237;-69
2023/10/10 00:59:28;;;;;;;2.97;2.70;;;;;;;;;;5065104;28;20206;-69
2023/10/10 01:01:55;;;;;;;3.87;3.07;;;;;;;;;;5067581;28;20207;-69
2023/10/10 01:04:35;;;;;;;4.78;3.10;;;;;;;;;;5068315;28;20230;-69
2023/10/10 01:07:06;;;;;;;3.15;2.75;;;;;;;;;;5068081;28;20278;-69
2023/10/10 01:09:39;;;;;;;2.88;2.70;;;;;;;;;;5067763;28;20203;-69
2023/10/10 01:12:06;;;;;;;3.83;3.10;;;;;;;;;;5067353;28;20225;-69
2023/10/10 01:14:34;;;;;;;4.93;3.03;;;;;;;;;;5068085;28;20221;-69
2023/10/10 01:17:02;;;;;;;3.72;2.88;;;;;;;;;;5067138;28;20230;-69
2023/10/10 01:19:29;;;;;;;4.25;2.70;;;;;;;;;;5067331;28;20227;-69
2023/10/10 01:21:59;;;;;;;3.03;2.75;;;;;;;;;;5060286;28;20207;-68
2023/10/10 01:24:26;;;;;;;2.65;2.40;;;;;;;;;;5068316;28;20663;-69
2023/10/10 01:27:02;;;;;;;3.08;2.70;;;;;;;;;;5067786;28;20206;-69
2023/10/10 01:29:40;;;;;;;6.40;3.28;;;;;;;;;;5068409;28;20210;-68
2023/10/10 01:32:10;;;;;;;8.63;3.47;;;;;;;;;;5067867;28;20236;-69
2023/10/10 01:34:43;;;;;;;6.32;3.28;;;;;;;;;;5068102;28;20280;-69
2023/10/10 01:37:20;;;;;;;4.95;3.33;;;;;;;;;;5067474;28;20230;-68
2023/10/10 01:39:55;;;;;;;4.32;3.03;;;;;;;;;;5067751;28;20229;-68
2023/10/10 01:42:31;;;;;;;4.45;3.15;;;;;;;;;;5067138;28;20214;-69
2023/10/10 01:45:02;;;;;;;6.97;3.00;;;;;;;;;;5066757;28;20230;-69
2023/10/10 01:47:34;;;;;;;5.03;3.35;;;;;;;;;;5066859;28;20195;-69
2023/10/10 01:50:01;;;;;;;6.97;3.50;;;;;;;;;;5066890;28;20870;-69
2023/10/10 01:52:30;;;;;;;5.63;3.47;;;;;;;;;;5067747;28;20700;-69
2023/10/10 01:54:57;;;;;;;6.20;4.00;;;;;;;;;;5067098;28;20219;-69
2023/10/10 01:57:26;;;;;;;3.80;3.30;;;;;;;;;;5067273;28;20515;-69
2023/10/10 01:59:57;;;;;;;3.67;3.37;;;;;;;;;;5067936;28;20217;-69
2023/10/10 02:02:27;;;;;;;4.10;3.65;;;;;;;;;;5067786;28;20210;-69
2023/10/10 02:04:56;;;;;;;8.07;3.47;;;;;;;;;;5067723;28;20203;-69
2023/10/10 02:07:23;;;;;;;6.33;3.43;;;;;;;;;;5065430;28;20237;-69
2023/10/10 02:09:59;;;;;;;4.97;3.65;;;;;;;;;;5047972;28;20274;-69
2023/10/10 02:12:26;;;;;;;4.18;3.30;;;;;;;;;;5065665;28;20297;-69
2023/10/10 02:14:54;;;;;;;4.95;3.20;;;;;;;;;;5067361;28;20210;-69
2023/10/10 02:17:24;;;;;;;3.58;3.13;;;;;;;;;;5067329;28;20227;-69
2023/10/10 02:19:57;;;;;;;3.95;3.45;;;;;;;;;;5066773;28;20211;-69
2023/10/10 02:22:33;;;;;;;4.60;3.43;;;;;;;;;;5067229;28;20213;-69
2023/10/10 02:27:55;;;;;;;5.80;3.70;;;;;;;;;;5067073;28;20257;-69
2023/10/10 02:30:34;;;;;;;3.63;3.17;;;;;;;;;;5066880;28;20213;-69
2023/10/10 02:33:08;;;;;;;5.43;3.40;;;;;;;;;;5065074;28;20665;-69
2023/10/10 02:35:47;;;;;;;4.33;3.30;;;;;;;;;;5066809;28;20578;-68
2023/10/10 02:38:16;;;;;;;3.38;3.05;;;;;;;;;;5065863;28;20227;-69
2023/10/10 02:40:50;;;;;;;3.87;3.37;;;;;;;;;;5065279;28;20226;-68
2023/10/10 02:43:33;;;;;;;5.50;3.40;;;;;;;;;;5067084;28;20230;-68
2023/10/10 02:46:00;;;;;;;4.97;3.40;;;;;;;;;;5060170;28;20784;-69
2023/10/10 02:48:27;;;;;;;4.67;3.53;;;;;;;;;;5066790;28;20679;-69
2023/10/10 02:50:53;;;;;;;4.70;3.20;;;;;;;;;;5066471;28;20310;-69
2023/10/10 02:53:21;;;;;;;4.53;3.25;;;;;;;;;;5066630;28;20203;-68
2023/10/10 02:55:51;;;;;;;3.92;3.42;;;;;;;;;;5065589;28;20233;-69
2023/10/10 02:58:21;;;;;;;3.63;3.23;;;;;;;;;;5065870;28;20886;-69
2023/10/10 03:00:52;;;;;;;6.33;3.80;;;;;;;;;;5065663;28;20661;-68
2023/10/10 03:03:19;;;;;;;7.60;3.83;;;;;;;;;;5066445;28;20207;-68
2023/10/10 03:05:51;;;;;;;6.60;3.70;;;;;;;;;;5066277;28;20728;-69
2023/10/10 03:08:34;;;;;;;7.60;3.73;;;;;;;;;;5066608;28;20231;-68
2023/10/10 03:11:14;;;;;;;6.47;3.43;;;;;;;;;;5066062;28;20708;-68
2023/10/10 03:13:47;;;;;;;4.17;3.40;;;;;;;;;;5060492;28;20272;-68
2023/10/10 03:16:42;;;;;;;4.47;3.47;;;;;;;;;;5066243;28;20199;-68
2023/10/10 03:19:25;;;;;;;5.60;3.50;;;;;;;;;;5066495;28;20207;-68
2023/10/10 03:21:58;;;;;;;3.67;3.37;;;;;;;;;;5061395;28;20199;-68
2023/10/10 03:24:51;;;;;;;6.27;3.73;;;;;;;;;;5065999;28;20203;-68
2023/10/10 03:33:08;;;;;;;4.67;3.60;;;;;;;;;;5083232;28;20559;-70
2023/10/10 03:35:52;;;;;;;4.17;2.93;;;;;;;;;;5083616;28;20291;-70
2023/10/10 03:38:43;;;;;;;4.13;2.93;;;;;;;;;;5080537;28;20210;-70
2023/10/10 05:23:29;;;;;;;5.10;3.20;;;;;;;;;;5075003;28;20597;-70
2023/10/10 05:24:12;;;;;;;7.33;4.00;;;;;;;;;;5002740;28;20227;-69
2023/10/10 05:26:46;;;;;;;6.43;3.93;;;;;;;;;;5000865;28;20295;-69
2023/10/10 05:29:19;;;;;;;6.63;4.07;;;;;;;;;;5024906;28;20281;-65
2023/10/10 05:31:46;;;;;;;143.13;27.63;;;;;;;;;;5038060;28;20614;-69
2023/10/10 05:34:14;;;;;;;41.93;10.13;;;;;;;;;;5047127;28;20196;-68
2023/10/10 05:36:42;;;;;;;15.97;5.43;;;;;;;;;;5046286;28;20314;-68
2023/10/10 05:39:11;;;;;;;11.30;5.17;;;;;;;;;;5043727;28;20210;-67
2023/10/10 05:41:40;;;;;;;13.83;5.30;;;;;;;;;;5047177;28;20196;-69
2023/10/10 05:44:08;;;;;;;6.17;4.20;;;;;;;;;;5046973;28;20768;-69
2023/10/10 05:46:37;;;;;;;20.30;4.57;;;;;;;;;;5045996;28;20404;-67
2023/10/10 05:49:05;;;;;;;6.23;4.07;;;;;;;;;;5047335;28;20688;-68
2023/10/10 05:51:33;;;;;;;8.40;3.90;;;;;;;;;;5046979;28;20346;-69
2023/10/10 05:54:00;;;;;;;15.33;4.63;;;;;;;;;;5046174;28;20739;-67
2023/10/10 05:56:29;;;;;;;5.87;3.90;;;;;;;;;;5045375;28;20567;-69
2023/10/10 05:58:57;;;;;;;4.40;4.00;;;;;;;;;;5044206;28;20237;-69
2023/10/10 06:01:24;;;;;;;6.33;3.90;;;;;;;;;;5047686;28;20196;-68
2023/10/10 06:03:52;;;;;;;5.00;3.63;;;;;;;;;;5047665;28;20210;-69
2023/10/10 06:06:21;;;;;;;4.93;3.90;;;;;;;;;;5048189;28;20234;-67
2023/10/10 06:08:58;;;;;;;4.33;3.33;;;;;;;;;;5047703;28;20284;-70
2023/10/10 06:11:25;;;;;;;8.63;4.03;;;;;;;;;;5047473;28;20227;-69
2023/10/10 06:13:53;;;;;;;9.63;4.00;;;;;;;;;;5047829;28;20678;-70
2023/10/10 06:16:23;;;;;;;5.00;4.00;;;;;;;;;;5047187;28;20237;-67
2023/10/10 06:18:50;;;;;;;8.70;3.88;;;;;;;;;;5047772;28;20200;-69
2023/10/10 06:21:19;;;;;;;10.73;3.80;;;;;;;;;;5048238;28;20211;-69
2023/10/10 06:23:47;;;;;;;12.23;4.00;;;;;;;;;;5047778;28;20200;-69
2023/10/10 06:26:15;;;;;;;3.83;3.43;;;;;;;;;;5047509;28;20721;-68
2023/10/10 06:28:47;;;;;;;5.80;4.00;;;;;;;;;;5047411;28;20203;-68
2023/10/10 06:31:19;;;;;;;7.50;4.17;;;;;;;;;;5047281;28;20318;-68
2023/10/10 06:33:49;;;;;;;5.07;3.67;;;;;;;;;;5047438;28;20218;-68
2023/10/10 06:36:32;;;;;;;5.30;4.03;;;;;;;;;;5047331;28;20285;-68
2023/10/10 06:39:18;;;;;;;8.27;3.83;;;;;;;;;;5043942;28;20203;-68
2023/10/10 06:41:50;;;;;;;5.20;3.80;;;;;;;;;;5045135;28;20215;-67
2023/10/10 06:44:31;;;;;;;5.43;4.10;;;;;;;;;;5043670;28;20650;-68
2023/10/10 06:46:58;;;;;;;7.23;4.33;;;;;;;;;;5045127;28;20207;-68
2023/10/10 06:49:25;;;;;;;10.80;4.53;;;;;;;;;;5046093;28;20214;-69
2023/10/10 06:51:55;;;;;;;5.53;3.87;;;;;;;;;;5046777;28;20245;-68
2023/10/10 06:54:28;;;;;;;6.17;4.07;;;;;;;;;;5046482;28;20216;-69
2023/10/10 06:57:04;;;;;;;5.50;4.07;;;;;;;;;;5046313;28;20265;-67
2023/10/10 06:59:32;;;;;;;7.60;3.93;;;;;;;;;;5046999;28;20211;-67
2023/10/10 07:02:00;;;;;;;9.03;4.13;;;;;;;;;;5046416;28;20269;-67
2023/10/10 07:04:27;;;;;;;4.83;3.43;;;;;;;;;;5046588;28;20247;-66
2023/10/10 07:07:00;;;;;;;5.13;4.47;;;;;;;;;;5045705;28;20235;-65
2023/10/10 07:09:28;;;;;;;6.93;4.20;;;;;;;;;;5046808;28;20210;-65
2023/10/10 07:11:56;;;;;;;6.07;4.70;;;;;;;;;;5045707;28;20219;-67
2023/10/10 07:14:25;;;;;;;7.80;4.90;;;;;;;;;;5045984;28;20212;-66
2023/10/10 07:16:54;;;;;;;9.20;5.32;;;;;;;;;;5046522;28;20295;-67
2023/10/10 07:19:26;;;;;;;11.77;5.67;;;;;;;;;;5046529;28;20211;-65
2023/10/10 07:21:53;;;;;;;6.40;4.55;;;;;;;;;;5046362;28;20208;-67
2023/10/10 07:24:25;;;;;;;7.47;4.67;;;;;;;;;;5045830;28;20420;-66
2023/10/10 07:27:05;;;;;;;8.32;4.78;;;;;;;;;;5045663;28;20285;-66
2023/10/10 07:32:16;;;;;;;9.05;4.90;;;;;;;;;;5045895;28;20235;-66
2023/10/10 07:34:49;;;;;;;9.38;5.15;;;;;;;;;;5046455;28;20295;-65
2023/10/10 07:37:16;;;;;;;7.78;5.13;;;;;;;;;;5045532;28;20677;-64
2023/10/10 07:39:56;;;;;;;9.10;5.03;;;;;;;;;;5045327;28;20712;-64
2023/10/10 07:42:29;;;;;;;7.88;5.07;;;;;;;;;;5045735;28;20649;-66
2023/10/10 07:44:56;;;;;;;12.52;5.38;;;;;;;;;;5046221;28;20250;-67
2023/10/10 07:47:32;;;;;;;6.88;5.28;;;;;;;;;;5046131;28;20196;-64
2023/10/10 07:49:59;;;;;;;7.40;5.40;;;;;;;;;;5046138;28;20235;-66
2023/10/10 07:52:27;;;;;;;14.48;6.43;;;;;;;;;;5044870;28;20223;-64
2023/10/10 07:55:02;;;;;;;9.63;5.38;;;;;;;;;;5046089;28;20219;-66
2023/10/10 07:57:55;;;;;;;7.20;5.43;;;;;;;;;;5045339;28;20332;-66
2023/10/10 08:00:18;;;;;;;9.07;5.53;;;;;;;;;;5046236;28;20203;-61
2023/10/10 08:02:49;;;;;;;8.02;5.15;;;;;;;;;;5046741;28;20570;-61
2023/10/10 08:05:19;;;;;;;9.82;5.45;;;;;;;;;;5045975;28;20200;-62
2023/10/10 08:07:47;;;;;;;8.60;5.47;;;;;;;;;;5046602;28;20294;-61
2023/10/10 08:10:29;;;;;;;9.80;5.53;;;;;;;;;;5046492;28;20215;-62
2023/10/10 08:12:58;;;;;;;9.77;5.50;;;;;;;;;;5046394;28;20281;-61
2023/10/10 08:15:25;;;;;;;6.90;5.03;;;;;;;;;;5046173;28;20207;-61
2023/10/10 08:17:54;;;;;;;9.68;5.30;;;;;;;;;;5047153;28;20233;-62
2023/10/10 08:21:08;;;;;;;7.72;5.47;;;;;;;;;;5050384;28;20200;-61
2023/10/10 08:23:25;;;;;;;7.20;5.35;;;;;;;;;;5049963;28;20198;-61
2023/10/10 08:25:52;;;;;;;8.05;4.90;;;;;;;;;;5049979;28;20568;-60
2023/10/10 08:28:21;;;;;;;6.15;4.57;;;;;;;;;;5049927;28;20694;-61
2023/10/10 08:30:48;;;;;;;5.95;4.05;;;;;;;;;;5050216;28;20207;-61
2023/10/10 08:33:15;;;;;;;9.73;4.68;;;;;;;;;;5049357;28;20251;-62
2023/10/10 08:35:42;;;;;;;8.52;4.72;;;;;;;;;;5049532;28;20204;-63
2023/10/10 08:38:09;;;;;;;7.90;5.07;;;;;;;;;;5050091;28;20719;-60
2023/10/10 08:40:40;;;;;;;7.03;4.55;;;;;;;;;;5049703;28;20589;-63
2023/10/10 08:43:09;;;;;;;10.95;4.70;;;;;;;;;;5049534;28;20227;-63
2023/10/10 08:45:43;;;;;;;8.82;4.72;;;;;;;;;;5049151;28;20283;-63
2023/10/10 08:48:13;;;;;;;9.15;4.82;;;;;;;;;;5049495;28;20733;-63
2023/10/10 08:50:40;;;;;;;9.90;4.75;;;;;;;;;;5050116;28;20211;-63
2023/10/10 08:53:10;;;;;;;6.80;5.07;;;;;;;;;;5049797;28;20256;-63
2023/10/10 08:55:38;;;;;;;7.55;5.00;;;;;;;;;;5049424;28;20685;-63
2023/10/10 08:58:07;;;;;;;13.30;5.30;;;;;;;;;;5048823;28;20306;-63
2023/10/10 09:00:34;;;;;;;8.35;4.85;;;;;;;;;;5049714;28;20215;-64
2023/10/10 09:03:02;;;;;;;15.55;4.95;;;;;;;;;;5045882;28;20192;-63
2023/10/10 09:05:29;;;;;;;9.13;5.38;;;;;;;;;;5049006;28;20211;-64
2023/10/10 09:08:05;;;;;;;9.20;5.05;;;;;;;;;;5049397;28;20207;-66
2023/10/10 09:10:39;;;;;;;15.82;5.70;;;;;;;;;;5049418;28;20219;-65
2023/10/10 09:13:07;;;;;;;10.75;5.32;;;;;;;;;;5048706;28;20223;-63
2023/10/10 09:15:35;;;;;;;13.55;5.63;;;;;;;;;;5049361;28;20647;-64
2023/10/10 09:18:17;;;;;;;8.82;5.38;;;;;;;;;;5048739;28;20215;-61
2023/10/10 09:20:46;;;;;;;8.48;5.40;;;;;;;;;;5049223;28;20302;-65
2023/10/10 09:23:23;;;;;;;9.40;5.07;;;;;;;;;;5049122;28;20685;-64
2023/10/10 09:26:04;;;;;;;9.90;4.93;;;;;;;;;;5048827;28;20211;-64
2023/10/10 09:28:44;;;;;;;12.02;5.13;;;;;;;;;;5048517;28;20208;-66
2023/10/10 09:31:20;;;;;;;9.85;5.10;;;;;;;;;;5049036;28;20247;-65
2023/10/10 09:33:54;;;;;;;12.63;5.65;;;;;;;;;;5048766;28;20235;-67
2023/10/10 09:36:26;;;;;;;12.40;5.47;;;;;;;;;;5047935;28;20581;-67
2023/10/10 09:38:57;;;;;;;7.43;5.30;;;;;;;;;;5048541;28;20572;-65
2023/10/10 09:41:36;;;;;;;7.35;4.90;;;;;;;;;;5048294;28;20302;-65
2023/10/10 09:47:13;;;;;;;11.43;5.30;;;;;;;;;;5037709;28;20299;-66
2023/10/10 09:49:43;;;;;;;10.32;5.15;;;;;;;;;;5048531;28;20235;-68
2023/10/10 09:54:58;;;;;;;10.98;5.20;;;;;;;;;;5048947;28;20203;-63
2023/10/10 09:57:26;;;;;;;11.20;5.50;;;;;;;;;;5048357;28;20226;-64
2023/10/10 09:59:56;;;;;;;9.70;5.03;;;;;;;;;;5046562;28;20206;-64
2023/10/10 10:02:40;;;;;;;9.23;5.80;;;;;;;;;;5047320;28;20249;-63
2023/10/10 10:05:14;;;;;;;9.20;5.35;;;;;;;;;;5045177;28;20199;-61
2023/10/10 10:07:56;;;;;;;12.00;5.35;;;;;;;;;;5047767;28;20746;-62
2023/10/10 10:10:35;;;;;;;9.52;5.28;;;;;;;;;;5047311;28;20432;-59
2023/10/10 10:13:13;;;;;;;14.63;5.20;;;;;;;;;;5047111;28;20313;-62
2023/10/10 10:15:49;;;;;;;11.23;5.45;;;;;;;;;;5047955;28;20225;-62
2023/10/10 10:18:26;;;;;;;14.35;5.70;;;;;;;;;;5047345;28;20729;-62
2023/10/10 10:21:18;;;;;;;10.65;5.88;;;;;;;;;;5047752;28;20208;-63
2023/10/10 10:24:15;;;;;;;11.82;5.88;;;;;;;;;;5047748;28;20211;-60
2023/10/10 10:26:43;;;;;;;11.02;5.20;;;;;;;;;;5046893;28;20576;-62
2023/10/10 10:29:16;;;;;;;8.43;5.18;;;;;;;;;;5048048;28;20313;-62
2023/10/10 10:31:51;;;;;;;8.77;5.40;;;;;;;;;;5047819;28;20259;-62
2023/10/10 10:34:25;;;;;;;10.98;4.85;;;;;;;;;;5048016;28;20322;-62
2023/10/10 10:37:06;;;;;;;10.73;5.55;;;;;;;;;;5048014;28;20215;-62
2023/10/10 10:39:35;;;;;;;7.65;4.78;;;;;;;;;;5047414;28;20215;-61
2023/10/10 10:42:02;;;;;;;12.15;4.75;;;;;;;;;;5047461;28;20281;-62
2023/10/10 10:44:28;;;;;;;12.05;4.70;;;;;;;;;;5047603;28;20235;-62
2023/10/10 10:46:57;;;;;;;6.70;4.57;;;;;;;;;;5047197;28;20203;-62
2023/10/10 10:49:28;;;;;;;7.50;5.20;;;;;;;;;;5047460;28;20226;-62
2023/10/10 10:52:17;;;;;;;10.07;4.90;;;;;;;;;;5047407;28;20199;-62
2023/10/10 10:55:00;;;;;;;6.85;4.70;;;;;;;;;;5047808;28;20203;-63
2023/10/10 10:57:29;;;;;;;5.50;4.30;;;;;;;;;;5047215;28;20306;-63
2023/10/10 10:59:57;;;;;;;9.93;4.90;;;;;;;;;;5046933;28;20203;-62
2023/10/10 11:02:30;;;;;;;9.38;4.63;;;;;;;;;;5046028;28;20561;-69
2023/10/10 11:04:58;;;;;;;12.15;4.30;;;;;;;;;;5042870;28;20222;-81
2023/10/10 11:07:40;;;;;;;8.02;4.32;;;;;;;;;;5045077;28;20203;-65
2023/10/10 11:10:10;;;;;;;10.00;5.00;;;;;;;;;;5045391;28;20668;-64
2023/10/10 11:12:40;;;;;;;9.30;5.03;;;;;;;;;;5046218;28;20230;-65
2023/10/10 11:15:10;;;;;;;7.53;4.72;;;;;;;;;;5045244;28;20203;-63
2023/10/10 11:17:42;;;;;;;12.15;5.07;;;;;;;;;;5026041;28;20569;-64
2023/10/10 11:20:29;;;;;;;6.05;4.43;;;;;;;;;;5041758;28;20211;-64
2023/10/10 11:23:11;;;;;;;7.18;5.00;;;;;;;;;;5045344;28;20658;-71
2023/10/10 11:25:46;;;;;;;9.82;4.18;;;;;;;;;;5042378;28;20706;-63
2023/10/10 11:28:21;;;;;;;10.60;5.28;;;;;;;;;;5037819;28;20211;-63
2023/10/10 11:30:49;;;;;;;11.65;4.60;;;;;;;;;;5045620;28;20215;-65
2023/10/10 11:33:19;;;;;;;10.40;4.45;;;;;;;;;;5044905;28;20235;-63
2023/10/10 11:35:50;;;;;;;6.07;4.50;;;;;;;;;;5044685;28;20230;-63
2023/10/10 11:38:33;;;;;;;11.65;5.20;;;;;;;;;;5045824;28;20199;-63
2023/10/10 11:41:09;;;;;;;9.95;5.95;;;;;;;;;;5045661;28;20564;-63
2023/10/10 11:43:38;;;;;;;7.85;5.03;;;;;;;;;;5045815;28;20218;-62
2023/10/10 11:46:06;;;;;;;8.18;4.78;;;;;;;;;;5037270;28;20205;-63
2023/10/10 11:48:42;;;;;;;6.60;4.85;;;;;;;;;;5029278;28;20219;-63
2023/10/10 11:51:11;;;;;;;10.15;5.35;;;;;;;;;;5046094;28;20231;-63
2023/10/10 11:53:38;;;;;;;11.32;5.22;;;;;;;;;;5048578;28;20266;-63
2023/10/10 11:56:13;;;;;;;11.65;5.53;;;;;;;;;;5049118;28;20250;-63
2023/10/10 11:58:40;;;;;;;6.07;5.07;;;;;;;;;;5049908;28;20205;-63
2023/10/10 12:01:08;;;;;;;10.20;5.05;;;;;;;;;;5049287;28;20555;-63
2023/10/10 12:03:42;;;;;;;9.40;4.70;;;;;;;;;;5049992;28;20207;-63
2023/10/10 12:06:14;;;;;;;6.15;4.70;;;;;;;;;;5048710;28;20211;-64
2023/10/10 12:08:44;;;;;;;9.75;4.18;;;;;;;;;;5049753;28;20196;-64
2023/10/10 12:11:15;;;;;;;12.88;5.32;;;;;;;;;;5050137;28;20211;-63
2023/10/10 12:13:44;;;;;;;10.77;4.85;;;;;;;;;;5049191;28;20285;-63
2023/10/10 12:16:11;;;;;;;11.05;4.53;;;;;;;;;;5044854;28;20239;-64
2023/10/10 12:18:43;;;;;;;6.55;4.30;;;;;;;;;;5049047;28;20212;-63
2023/10/10 12:21:13;;;;;;;6.75;4.70;;;;;;;;;;5048760;28;20277;-64
2023/10/10 12:23:41;;;;;;;6.78;3.70;;;;;;;;;;5045668;28;20195;-63
2023/10/10 12:26:08;;;;;;;4.82;4.30;;;;;;;;;;5048612;28;20272;-63
2023/10/10 12:28:37;;;;;;;5.85;4.55;;;;;;;;;;5048175;28;20207;-62
2023/10/10 12:31:04;;;;;;;10.23;5.10;;;;;;;;;;5048856;28;20227;-64
2023/10/10 12:33:35;;;;;;;11.75;4.93;;;;;;;;;;5048001;28;20771;-65
2023/10/10 12:36:07;;;;;;;6.13;4.25;;;;;;;;;;5048631;28;20338;-64
2023/10/10 12:38:34;;;;;;;12.23;5.03;;;;;;;;;;5048322;28;20765;-63
2023/10/10 12:41:01;;;;;;;8.07;4.68;;;;;;;;;;5048416;28;20591;-64
2023/10/10 12:43:28;;;;;;;8.60;4.63;;;;;;;;;;5048387;28;20235;-64
2023/10/10 12:46:00;;;;;;;9.55;5.15;;;;;;;;;;5048002;28;20592;-64
2023/10/10 12:48:30;;;;;;;11.35;5.05;;;;;;;;;;5047608;28;20427;-64
2023/10/10 12:51:00;;;;;;;10.75;4.80;;;;;;;;;;5047874;28;20874;-65
2023/10/10 12:53:30;;;;;;;10.35;5.50;;;;;;;;;;5047150;28;20223;-65
2023/10/10 12:56:01;;;;;;;17.58;5.30;;;;;;;;;;5045652;28;20215;-64
2023/10/10 12:58:30;;;;;;;7.82;4.80;;;;;;;;;;5047698;28;20212;-65
2023/10/10 13:00:59;;;;;;;10.38;4.75;;;;;;;;;;5047895;28;20200;-65
2023/10/10 13:03:28;;;;;;;9.40;4.85;;;;;;;;;;5047185;28;20278;-65
2023/10/10 13:05:58;;;;;;;9.40;4.63;;;;;;;;;;5048346;28;20226;-65
2023/10/10 13:08:25;;;;;;;8.05;4.10;;;;;;;;;;5047941;28;20207;-64
2023/10/10 13:10:55;;;;;;;13.43;4.47;;;;;;;;;;5047969;28;20218;-64
2023/10/10 13:13:31;;;;;;;7.53;4.15;;;;;;;;;;5047478;28;20297;-65
2023/10/10 13:16:22;;;;;;;9.18;4.70;;;;;;;;;;5047532;28;20242;-64
2023/10/10 13:18:49;;;;;;;9.93;4.68;;;;;;;;;;5047762;28;20620;-64
2023/10/10 13:21:17;;;;;;;7.20;4.68;;;;;;;;;;5047277;28;20669;-65
2023/10/10 13:23:45;;;;;;;7.85;4.18;;;;;;;;;;5039328;28;20211;-65
2023/10/10 13:26:12;;;;;;;9.98;3.97;;;;;;;;;;5047459;28;20215;-65
2023/10/10 13:28:44;;;;;;;12.02;4.75;;;;;;;;;;5047163;28;20835;-64
2023/10/10 13:31:12;;;;;;;12.05;4.60;;;;;;;;;;5047508;28;20242;-65
2023/10/10 13:33:40;;;;;;;6.95;4.15;;;;;;;;;;5047449;28;20227;-64
2023/10/10 13:36:09;;;;;;;8.63;4.10;;;;;;;;;;5047168;28;20211;-67
2023/10/10 13:38:36;;;;;;;5.43;3.70;;;;;;;;;;5047447;28;20597;-64
2023/10/10 13:41:08;;;;;;;8.35;4.28;;;;;;;;;;5048445;28;20207;-64
2023/10/10 13:43:36;;;;;;;10.60;4.00;;;;;;;;;;5048045;28;20240;-65
2023/10/10 13:46:05;;;;;;;10.25;3.65;;;;;;;;;;5047399;28;20214;-65
2023/10/10 13:48:36;;;;;;;6.90;3.60;;;;;;;;;;5047521;28;20212;-65
2023/10/10 13:51:07;;;;;;;8.40;3.75;;;;;;;;;;5047857;28;20215;-65
2023/10/10 13:53:34;;;;;;;5.65;3.40;;;;;;;;;;5047391;28;20678;-65
2023/10/10 13:56:01;;;;;;;7.65;3.88;;;;;;;;;;5047818;28;20207;-65
2023/10/10 13:58:28;;;;;;;7.70;3.88;;;;;;;;;;5047467;28;20208;-65
2023/10/10 14:01:10;;;;;;;7.03;3.90;;;;;;;;;;5047761;28;20226;-65
2023/10/10 14:03:45;;;;;;;7.00;3.65;;;;;;;;;;5047346;28;20666;-65
2023/10/10 14:06:12;;;;;;;7.75;3.80;;;;;;;;;;5047504;28;20579;-65
2023/10/10 14:08:43;;;;;;;7.78;3.85;;;;;;;;;;5046976;28;20747;-65
2023/10/10 14:11:11;;;;;;;7.55;3.40;;;;;;;;;;5047457;28;20462;-65
2023/10/10 14:13:39;;;;;;;7.38;3.95;;;;;;;;;;5047502;28;20231;-65
2023/10/10 14:16:06;;;;;;;5.10;3.40;;;;;;;;;;5046969;28;20211;-65
2023/10/10 14:18:42;;;;;;;8.02;3.72;;;;;;;;;;5046707;28;20204;-65
2023/10/10 14:21:11;;;;;;;6.43;3.78;;;;;;;;;;5047431;28;20211;-64
2023/10/10 14:23:39;;;;;;;5.45;3.55;;;;;;;;;;5047247;28;20248;-66
2023/10/10 14:26:13;;;;;;;9.80;3.72;;;;;;;;;;5047323;28;20207;-65
2023/10/10 14:28:41;;;;;;;8.23;3.78;;;;;;;;;;5047654;28;20230;-65
2023/10/10 14:31:12;;;;;;;6.63;3.65;;;;;;;;;;5047976;28;20267;-66
2023/10/10 14:33:39;;;;;;;5.97;4.15;;;;;;;;;;5046982;28;20239;-65
2023/10/10 14:36:11;;;;;;;8.07;4.05;;;;;;;;;;5045976;28;20955;-65
2023/10/10 14:38:39;;;;;;;9.48;4.10;;;;;;;;;;5046683;28;20204;-65
2023/10/10 14:41:07;;;;;;;4.28;3.63;;;;;;;;;;5047273;28;20204;-64
2023/10/10 14:43:34;;;;;;;5.57;3.47;;;;;;;;;;5047504;28;20230;-65
2023/10/10 14:46:01;;;;;;;6.47;3.75;;;;;;;;;;5044518;28;20217;-64
2023/10/10 14:48:30;;;;;;;8.18;3.85;;;;;;;;;;5042496;28;20204;-65
2023/10/10 14:50:57;;;;;;;11.70;4.05;;;;;;;;;;5046885;28;20208;-63
2023/10/10 14:53:24;;;;;;;7.63;3.92;;;;;;;;;;5044791;28;20218;-61
2023/10/10 14:55:53;;;;;;;7.43;4.10;;;;;;;;;;5045896;28;20228;-63
2023/10/10 14:58:21;;;;;;;8.02;3.80;;;;;;;;;;5045343;28;20223;-63
2023/10/10 15:00:49;;;;;;;5.47;3.65;;;;;;;;;;5045227;28;20651;-63
2023/10/10 15:03:17;;;;;;;5.28;3.45;;;;;;;;;;5045203;28;20214;-64
2023/10/10 15:05:47;;;;;;;6.20;4.13;;;;;;;;;;5042786;28;20216;-64
2023/10/10 15:08:14;;;;;;;3.92;3.25;;;;;;;;;;5045897;28;20202;-63
2023/10/10 15:10:41;;;;;;;6.32;3.95;;;;;;;;;;5046266;28;20195;-64
2023/10/10 15:13:10;;;;;;;7.90;4.20;;;;;;;;;;5046535;28;20196;-64
2023/10/10 15:15:37;;;;;;;7.57;3.65;;;;;;;;;;5045120;28;20777;-64
2023/10/10 15:18:05;;;;;;;8.35;3.90;;;;;;;;;;5045081;28;20207;-62
2023/10/10 15:20:32;;;;;;;4.90;3.33;;;;;;;;;;5046548;28;20200;-65
2023/10/10 15:22:59;;;;;;;5.30;3.35;;;;;;;;;;5047246;28;20211;-67
2023/10/10 15:25:26;;;;;;;4.57;3.53;;;;;;;;;;5046198;28;20212;-63
2023/10/10 15:27:54;;;;;;;3.60;3.20;;;;;;;;;;5046973;28;20219;-62
2023/10/10 15:30:23;;;;;;;8.73;3.13;;;;;;;;;;5046421;28;20208;-63
2023/10/10 15:32:56;;;;;;;4.10;3.35;;;;;;;;;;5045586;28;20671;-63
2023/10/10 15:35:24;;;;;;;10.77;3.78;;;;;;;;;;5046584;28;20390;-63
2023/10/10 15:37:52;;;;;;;5.68;3.42;;;;;;;;;;5045200;28;20249;-64
2023/10/10 15:40:21;;;;;;;5.68;3.20;;;;;;;;;;5046807;28;20235;-64
2023/10/10 15:42:49;;;;;;;4.10;2.80;;;;;;;;;;5046238;28;20231;-64
2023/10/10 15:45:20;;;;;;;7.00;3.50;;;;;;;;;;5045192;28;20200;-64
2023/10/10 15:47:52;;;;;;;6.18;3.90;;;;;;;;;;5045786;28;20606;-65
2023/10/10 15:50:21;;;;;;;6.88;3.53;;;;;;;;;;5046227;28;20808;-64
2023/10/10 15:52:49;;;;;;;3.97;3.13;;;;;;;;;;5034601;28;20208;-65
2023/10/10 15:55:19;;;;;;;9.80;3.63;;;;;;;;;;5038998;28;20321;-65
2023/10/10 15:57:52;;;;;;;4.43;3.50;;;;;;;;;;5044292;28;20199;-65
2023/10/10 16:00:21;;;;;;;4.03;3.30;;;;;;;;;;5042821;28;20215;-63
2023/10/10 16:02:53;;;;;;;3.95;3.17;;;;;;;;;;5050649;28;20234;-65
2023/10/10 16:05:22;;;;;;;3.60;3.30;;;;;;;;;;5045234;28;20202;-66
2023/10/10 16:07:49;;;;;;;4.68;2.70;;;;;;;;;;5055901;28;20210;-62
2023/10/10 16:10:17;;;;;;;7.80;3.78;;;;;;;;;;5057291;28;20223;-62
2023/10/10 16:12:44;;;;;;;5.38;3.22;;;;;;;;;;5052041;28;20755;-62
2023/10/10 16:15:18;;;;;;;7.80;3.40;;;;;;;;;;5059205;28;20232;-63
2023/10/10 16:17:45;;;;;;;6.38;3.75;;;;;;;;;;5050735;28;20219;-67
2023/10/10 16:20:16;;;;;;;6.28;3.40;;;;;;;;;;5055909;28;20218;-67
2023/10/10 16:22:43;;;;;;;8.98;3.30;;;;;;;;;;5045250;28;20239;-69
2023/10/10 16:25:13;;;;;;;5.65;3.42;;;;;;;;;;5045864;28;20281;-67
2023/10/10 16:27:41;;;;;;;5.60;3.13;;;;;;;;;;5042348;28;20212;-72
2023/10/10 16:30:08;;;;;;;4.65;3.33;;;;;;;;;;5046339;28;20227;-67
2023/10/10 16:32:37;;;;;;;4.82;3.40;;;;;;;;;;5040778;28;20908;-69
2023/10/10 16:35:06;;;;;;;6.93;3.15;;;;;;;;;;5042829;28;20224;-64
2023/10/10 16:37:36;;;;;;;4.15;3.30;;;;;;;;;;5038423;28;20261;-68
2023/10/10 16:40:04;;;;;;;9.38;3.42;;;;;;;;;;5054133;28;20208;-72
2023/10/10 16:42:32;;;;;;;6.32;3.45;;;;;;;;;;5042326;28;20315;-68
2023/10/10 16:44:59;;;;;;;3.70;3.33;;;;;;;;;;5049479;28;20204;-70
2023/10/10 16:47:27;;;;;;;6.82;3.50;;;;;;;;;;5049264;28;20674;-69
2023/10/10 16:49:55;;;;;;;9.30;3.47;;;;;;;;;;5049312;28;20254;-66
2023/10/10 16:52:25;;;;;;;5.78;3.28;;;;;;;;;;5043114;28;20215;-69
2023/10/10 16:54:54;;;;;;;10.25;3.55;;;;;;;;;;5048884;28;20255;-66
2023/10/10 16:57:22;;;;;;;3.35;2.88;;;;;;;;;;5049606;28;20200;-67
2023/10/10 16:59:55;;;;;;;7.53;3.67;;;;;;;;;;5050503;28;20223;-69
2023/10/10 17:02:27;;;;;;;5.43;3.88;;;;;;;;;;5049245;28;20207;-68